Rodney Mitchell — WCV8372 — position and weather

sailwx.info

Track history (hours):
 
Tides and Currents Weather Stations Pressure Air Temp Water Temp Dewpoint Dewpoint Depression Visibility Wind Speed Wind Dir Waves Ship Positions

Rodney Mitchell

Owner: VINTON CROSBY INC, GOLDEN MEADOW, LA. More information available from US FCC via Universal Licensing System and Coast Guard Vessel Documentation Center.

Last reported at 2015-Aug-31 10:33 UTC. Time now 2015-Aug-31 10:52 UTC.
Position N 29°32' W 094°54'.

; draft 3 m.

Type: Towing. MMSI: 367028860.

Date/timePositionNaut miles runAvg speedWind from/ knotsBaromVisibWave heightAir tempDewpointWater temp
2015-Aug-31 10:33N 29°32' W 094°54'5 4.8
2015-Aug-31 09:34N 29°36' W 094°57'5 5.2
2015-Aug-31 08:34N 29°41' W 094°59'5 4.9
2015-Aug-31 07:33N 29°44' W 095°03'4 3.3
2015-Aug-31 06:30N 29°48' W 095°04'0 0.0
2015-Aug-31 05:34N 29°48' W 095°04'0 0.0
2015-Aug-31 04:32N 29°48' W 095°04'0 0.0
2015-Aug-31 03:33N 29°48' W 095°04'0 0.0
2015-Aug-31 02:33N 29°48' W 095°04'0 0.0
2015-Aug-31 01:33N 29°48' W 095°04'0 0.0
2015-Aug-31 00:32N 29°48' W 095°04'0 0.0
2015-Aug-30 23:14N 29°48' W 095°04'0 0.0
2015-Aug-30 22:17N 29°48' W 095°04'0 0.0
2015-Aug-30 21:06N 29°48' W 095°04'0 0.0
2015-Aug-30 20:13N 29°48' W 095°04'0 0.0
2015-Aug-30 19:27N 29°48' W 095°04'0 0.0
2015-Aug-30 18:31N 29°48' W 095°04'0 0.0
2015-Aug-30 17:33N 29°48' W 095°04'0 0.0
2015-Aug-30 16:32N 29°48' W 095°04'0 0.0
2015-Aug-30 15:32N 29°48' W 095°04'0 0.0
2015-Aug-30 14:33N 29°48' W 095°04'0 0.0
2015-Aug-30 13:33N 29°48' W 095°04'0 0.0
2015-Aug-30 12:33N 29°48' W 095°04'0 0.0
2015-Aug-30 11:33N 29°48' W 095°04'0 0.0
2015-Aug-30 10:33N 29°48' W 095°04'0 0.0
2015-Aug-30 09:18N 29°48' W 095°04'0 0.0
2015-Aug-30 08:33N 29°48' W 095°04'0 0.0
2015-Aug-30 07:33N 29°48' W 095°04'0 0.0
2015-Aug-30 06:33N 29°48' W 095°04'0 0.0
2015-Aug-30 05:25N 29°48' W 095°04'2 2.1
2015-Aug-30 04:15N 29°46' W 095°06'0 0.0
2015-Aug-30 03:08N 29°46' W 095°06'1 0.8
2015-Aug-30 02:28N 29°46' W 095°06'3 3.4
2015-Aug-30 01:33N 29°44' W 095°09'5 4.7
2015-Aug-30 00:28N 29°43' W 095°14'0 0.0
2015-Aug-29 13:33N 29°43' W 095°15'0 0.1
2015-Aug-29 12:33N 29°43' W 095°14'0 0.1
2015-Aug-29 11:16N 29°43' W 095°15'0 0.0
2015-Aug-29 10:26N 29°43' W 095°15'0 0.0
2015-Aug-29 09:33N 29°43' W 095°15'0 0.0
2015-Aug-29 08:29N 29°43' W 095°15'0 0.0
2015-Aug-29 07:28N 29°43' W 095°15'0 0.0
2015-Aug-28 18:26N 29°43' W 095°15'3 3.3
2015-Aug-28 17:26N 29°45' W 095°11'3 3.8
2015-Aug-28 16:33N 29°44' W 095°07'4 3.6
2015-Aug-28 15:33N 29°47' W 095°05'0 0.0
2015-Aug-28 14:04N 29°47' W 095°05'0 0.0
2015-Aug-28 13:33N 29°47' W 095°05'0 0.0
2015-Aug-28 10:33N 29°47' W 095°05'0 0.0
2015-Aug-28 09:30N 29°47' W 095°05'0 0.0
2015-Aug-28 08:16N 29°47' W 095°05'0 0.0
2015-Aug-28 07:33N 29°47' W 095°05'0 0.0
2015-Aug-28 05:25N 29°47' W 095°05'0 0.0
2015-Aug-28 03:32N 29°47' W 095°05'0 0.0
2015-Aug-28 02:33N 29°47' W 095°05'3 0.3
2015-Aug-27 18:33N 29°44' W 095°03'5 5.4
2015-Aug-27 17:33N 29°41' W 094°58'2 2.1
2015-Aug-27 16:26N 29°42' W 094°56'2 2.5
2015-Aug-27 15:32N 29°44' W 094°56'2 1.7
2015-Aug-27 14:32N 29°43' W 094°56'2 1.8
2015-Aug-27 13:32N 29°41' W 094°55'4 3.7
2015-Aug-27 12:34N 29°42' W 094°60'5 4.6
2015-Aug-27 11:33N 29°45' W 095°04'3 2.2
2015-Aug-27 10:20N 29°46' W 095°06'0 0.0
2015-Aug-27 09:17N 29°46' W 095°06'0 0.1
2015-Aug-27 08:13N 29°46' W 095°06'1 1.4
2015-Aug-27 07:34N 29°45' W 095°06'4 3.7
2015-Aug-27 06:34N 29°45' W 095°10'4 3.8
2015-Aug-27 05:33N 29°43' W 095°14'1 0.5
2015-Aug-27 04:29N 29°43' W 095°14'0 0.1
2015-Aug-27 03:32N 29°43' W 095°15'5 4.7
2015-Aug-27 02:31N 29°44' W 095°09'3 3.4
2015-Aug-27 01:34N 29°46' W 095°06'1 0.2
2015-Aug-26 18:26N 29°47' W 095°05'0 0.0
2015-Aug-26 17:29N 29°47' W 095°05'0 0.0
2015-Aug-26 14:13N 29°47' W 095°05'0 0.0
2015-Aug-26 13:31N 29°47' W 095°05'0 0.0
2015-Aug-26 12:32N 29°47' W 095°05'0 0.0
2015-Aug-26 11:34N 29°47' W 095°05'0 0.0
2015-Aug-26 10:34N 29°47' W 095°05'0 0.0
2015-Aug-26 09:33N 29°47' W 095°05'0 0.0
2015-Aug-26 08:34N 29°47' W 095°05'0 0.0
2015-Aug-26 07:33N 29°47' W 095°05'0 0.0
2015-Aug-26 06:34N 29°47' W 095°05'0 0.0
2015-Aug-26 05:31N 29°47' W 095°05'0 0.0
2015-Aug-26 04:33N 29°47' W 095°05'0 0.0
2015-Aug-26 03:28N 29°47' W 095°05'0 0.1
2015-Aug-26 02:30N 29°47' W 095°05'0 0.0
2015-Aug-26 01:28N 29°47' W 095°05'0 0.0
2015-Aug-26 00:34N 29°47' W 095°05'0 0.0
2015-Aug-25 23:09N 29°47' W 095°05'0 0.0
2015-Aug-25 22:31N 29°47' W 095°05'0 0.0
2015-Aug-25 21:33N 29°47' W 095°05'0 0.0
2015-Aug-25 20:33N 29°47' W 095°05'0 0.0
2015-Aug-25 19:33N 29°47' W 095°05'1 0.8
2015-Aug-25 18:31N 29°46' W 095°05'1 0.7
2015-Aug-25 17:16N 29°47' W 095°05'0 0.0
2015-Aug-25 15:24N 29°47' W 095°05'0 0.0
2015-Aug-25 14:19N 29°47' W 095°05'0 0.0
2015-Aug-25 13:33N 29°47' W 095°05'0 0.0
2015-Aug-25 12:34N 29°47' W 095°05'0 0.0
2015-Aug-25 11:33N 29°47' W 095°05'0 0.0
2015-Aug-25 10:34N 29°47' W 095°05'0 0.0
2015-Aug-25 09:33N 29°47' W 095°05'0 0.0
2015-Aug-25 08:33N 29°47' W 095°05'0 0.0
2015-Aug-25 07:33N 29°47' W 095°05'0 0.0
2015-Aug-25 06:34N 29°47' W 095°05'0 0.0
2015-Aug-25 05:33N 29°47' W 095°05'0 0.0
2015-Aug-25 04:33N 29°47' W 095°05'0 0.0
2015-Aug-25 03:22N 29°47' W 095°05'0 0.0
2015-Aug-25 02:14N 29°47' W 095°05'0 0.0
2015-Aug-25 01:33N 29°47' W 095°05'0 0.0
2015-Aug-25 00:32N 29°47' W 095°05'0 0.0
2015-Aug-24 23:33N 29°47' W 095°05'0 0.0
2015-Aug-24 21:25N 29°47' W 095°05'0 0.0
2015-Aug-24 20:33N 29°47' W 095°05'0 0.0
2015-Aug-24 18:14N 29°47' W 095°05'1 1.9
2015-Aug-24 17:32N 29°46' W 095°06'1 0.1
2015-Aug-24 09:23N 29°47' W 095°06'0 0.0
2015-Aug-24 08:34N 29°47' W 095°06'0 0.0
2015-Aug-24 07:32N 29°47' W 095°06'0 0.0
2015-Aug-24 06:33N 29°47' W 095°06'0 0.0
2015-Aug-24 05:25N 29°47' W 095°06'1 0.6
2015-Aug-24 04:28N 29°46' W 095°06'3 2.9
2015-Aug-24 03:33N 29°45' W 095°04'4 3.8
2015-Aug-24 02:34N 29°42' W 095°00'4 3.8
2015-Aug-24 01:33N 29°39' W 094°58'4 4.4
2015-Aug-24 00:34N 29°35' W 094°56'4 4.4
2015-Aug-23 23:34N 29°31' W 094°53'4 4.0
2015-Aug-23 22:33N 29°28' W 094°51'4 4.0
2015-Aug-23 21:31N 29°24' W 094°49'  
Track history (hours):
 
Tides and Currents Weather Stations Pressure Air Temp Water Temp Dewpoint Dewpoint Depression Visibility Wind Speed Wind Dir Waves Ship Positions

Rodney Mitchell

Owner: VINTON CROSBY INC, GOLDEN MEADOW, LA. More information available from US FCC via Universal Licensing System and Coast Guard Vessel Documentation Center.

Last reported at 2015-Aug-31 10:33 UTC. Time now 2015-Aug-31 10:52 UTC.
Position N 29°32' W 094°54'.

; draft 3 m.

Type: Towing. MMSI: 367028860.

Date/timePositionNaut miles runAvg speedWind from/ knotsBaromVisibWave heightAir tempDewpointWater temp
2015-Aug-31 10:33N 29°32' W 094°54'5 4.8
2015-Aug-31 09:34N 29°36' W 094°57'5 5.2
2015-Aug-31 08:34N 29°41' W 094°59'5 4.9
2015-Aug-31 07:33N 29°44' W 095°03'4 3.3
2015-Aug-31 06:30N 29°48' W 095°04'0 0.0
2015-Aug-31 05:34N 29°48' W 095°04'0 0.0
2015-Aug-31 04:32N 29°48' W 095°04'0 0.0
2015-Aug-31 03:33N 29°48' W 095°04'0 0.0
2015-Aug-31 02:33N 29°48' W 095°04'0 0.0
2015-Aug-31 01:33N 29°48' W 095°04'0 0.0
2015-Aug-31 00:32N 29°48' W 095°04'0 0.0
2015-Aug-30 23:14N 29°48' W 095°04'0 0.0
2015-Aug-30 22:17N 29°48' W 095°04'0 0.0
2015-Aug-30 21:06N 29°48' W 095°04'0 0.0
2015-Aug-30 20:13N 29°48' W 095°04'0 0.0
2015-Aug-30 19:27N 29°48' W 095°04'0 0.0
2015-Aug-30 18:31N 29°48' W 095°04'0 0.0
2015-Aug-30 17:33N 29°48' W 095°04'0 0.0
2015-Aug-30 16:32N 29°48' W 095°04'0 0.0
2015-Aug-30 15:32N 29°48' W 095°04'0 0.0
2015-Aug-30 14:33N 29°48' W 095°04'0 0.0
2015-Aug-30 13:33N 29°48' W 095°04'0 0.0
2015-Aug-30 12:33N 29°48' W 095°04'0 0.0
2015-Aug-30 11:33N 29°48' W 095°04'0 0.0
2015-Aug-30 10:33N 29°48' W 095°04'0 0.0
2015-Aug-30 09:18N 29°48' W 095°04'0 0.0
2015-Aug-30 08:33N 29°48' W 095°04'0 0.0
2015-Aug-30 07:33N 29°48' W 095°04'0 0.0
2015-Aug-30 06:33N 29°48' W 095°04'0 0.0
2015-Aug-30 05:25N 29°48' W 095°04'2 2.1
2015-Aug-30 04:15N 29°46' W 095°06'0 0.0
2015-Aug-30 03:08N 29°46' W 095°06'1 0.8
2015-Aug-30 02:28N 29°46' W 095°06'3 3.4
2015-Aug-30 01:33N 29°44' W 095°09'5 4.7
2015-Aug-30 00:28N 29°43' W 095°14'0 0.0
2015-Aug-29 13:33N 29°43' W 095°15'0 0.1
2015-Aug-29 12:33N 29°43' W 095°14'0 0.1
2015-Aug-29 11:16N 29°43' W 095°15'0 0.0
2015-Aug-29 10:26N 29°43' W 095°15'0 0.0
2015-Aug-29 09:33N 29°43' W 095°15'0 0.0
2015-Aug-29 08:29N 29°43' W 095°15'0 0.0
2015-Aug-29 07:28N 29°43' W 095°15'0 0.0
2015-Aug-28 18:26N 29°43' W 095°15'3 3.3
2015-Aug-28 17:26N 29°45' W 095°11'3 3.8
2015-Aug-28 16:33N 29°44' W 095°07'4 3.6
2015-Aug-28 15:33N 29°47' W 095°05'0 0.0
2015-Aug-28 14:04N 29°47' W 095°05'0 0.0
2015-Aug-28 13:33N 29°47' W 095°05'0 0.0
2015-Aug-28 10:33N 29°47' W 095°05'0 0.0
2015-Aug-28 09:30N 29°47' W 095°05'0 0.0
2015-Aug-28 08:16N 29°47' W 095°05'0 0.0
2015-Aug-28 07:33N 29°47' W 095°05'0 0.0
2015-Aug-28 05:25N 29°47' W 095°05'0 0.0
2015-Aug-28 03:32N 29°47' W 095°05'0 0.0
2015-Aug-28 02:33N 29°47' W 095°05'3 0.3
2015-Aug-27 18:33N 29°44' W 095°03'5 5.4
2015-Aug-27 17:33N 29°41' W 094°58'2 2.1
2015-Aug-27 16:26N 29°42' W 094°56'2 2.5
2015-Aug-27 15:32N 29°44' W 094°56'2 1.7
2015-Aug-27 14:32N 29°43' W 094°56'2 1.8
2015-Aug-27 13:32N 29°41' W 094°55'4 3.7
2015-Aug-27 12:34N 29°42' W 094°60'5 4.6
2015-Aug-27 11:33N 29°45' W 095°04'3 2.2
2015-Aug-27 10:20N 29°46' W 095°06'0 0.0
2015-Aug-27 09:17N 29°46' W 095°06'0 0.1
2015-Aug-27 08:13N 29°46' W 095°06'1 1.4
2015-Aug-27 07:34N 29°45' W 095°06'4 3.7
2015-Aug-27 06:34N 29°45' W 095°10'4 3.8
2015-Aug-27 05:33N 29°43' W 095°14'1 0.5
2015-Aug-27 04:29N 29°43' W 095°14'0 0.1
2015-Aug-27 03:32N 29°43' W 095°15'5 4.7
2015-Aug-27 02:31N 29°44' W 095°09'3 3.4
2015-Aug-27 01:34N 29°46' W 095°06'1 0.2
2015-Aug-26 18:26N 29°47' W 095°05'0 0.0
2015-Aug-26 17:29N 29°47' W 095°05'0 0.0
2015-Aug-26 14:13N 29°47' W 095°05'0 0.0
2015-Aug-26 13:31N 29°47' W 095°05'0 0.0
2015-Aug-26 12:32N 29°47' W 095°05'0 0.0
2015-Aug-26 11:34N 29°47' W 095°05'0 0.0
2015-Aug-26 10:34N 29°47' W 095°05'0 0.0
2015-Aug-26 09:33N 29°47' W 095°05'0 0.0
2015-Aug-26 08:34N 29°47' W 095°05'0 0.0
2015-Aug-26 07:33N 29°47' W 095°05'0 0.0
2015-Aug-26 06:34N 29°47' W 095°05'0 0.0
2015-Aug-26 05:31N 29°47' W 095°05'0 0.0
2015-Aug-26 04:33N 29°47' W 095°05'0 0.0
2015-Aug-26 03:28N 29°47' W 095°05'0 0.1
2015-Aug-26 02:30N 29°47' W 095°05'0 0.0
2015-Aug-26 01:28N 29°47' W 095°05'0 0.0
2015-Aug-26 00:34N 29°47' W 095°05'0 0.0
2015-Aug-25 23:09N 29°47' W 095°05'0 0.0
2015-Aug-25 22:31N 29°47' W 095°05'0 0.0
2015-Aug-25 21:33N 29°47' W 095°05'0 0.0
2015-Aug-25 20:33N 29°47' W 095°05'0 0.0
2015-Aug-25 19:33N 29°47' W 095°05'1 0.8
2015-Aug-25 18:31N 29°46' W 095°05'1 0.7
2015-Aug-25 17:16N 29°47' W 095°05'0 0.0
2015-Aug-25 15:24N 29°47' W 095°05'0 0.0
2015-Aug-25 14:19N 29°47' W 095°05'0 0.0
2015-Aug-25 13:33N 29°47' W 095°05'0 0.0
2015-Aug-25 12:34N 29°47' W 095°05'0 0.0
2015-Aug-25 11:33N 29°47' W 095°05'0 0.0
2015-Aug-25 10:34N 29°47' W 095°05'0 0.0
2015-Aug-25 09:33N 29°47' W 095°05'0 0.0
2015-Aug-25 08:33N 29°47' W 095°05'0 0.0
2015-Aug-25 07:33N 29°47' W 095°05'0 0.0
2015-Aug-25 06:34N 29°47' W 095°05'0 0.0
2015-Aug-25 05:33N 29°47' W 095°05'0 0.0
2015-Aug-25 04:33N 29°47' W 095°05'0 0.0
2015-Aug-25 03:22N 29°47' W 095°05'0 0.0
2015-Aug-25 02:14N 29°47' W 095°05'0 0.0
2015-Aug-25 01:33N 29°47' W 095°05'0 0.0
2015-Aug-25 00:32N 29°47' W 095°05'0 0.0
2015-Aug-24 23:33N 29°47' W 095°05'0 0.0
2015-Aug-24 21:25N 29°47' W 095°05'0 0.0
2015-Aug-24 20:33N 29°47' W 095°05'0 0.0
2015-Aug-24 18:14N 29°47' W 095°05'1 1.9
2015-Aug-24 17:32N 29°46' W 095°06'1 0.1
2015-Aug-24 09:23N 29°47' W 095°06'0 0.0
2015-Aug-24 08:34N 29°47' W 095°06'0 0.0
2015-Aug-24 07:32N 29°47' W 095°06'0 0.0
2015-Aug-24 06:33N 29°47' W 095°06'0 0.0
2015-Aug-24 05:25N 29°47' W 095°06'1 0.6
2015-Aug-24 04:28N 29°46' W 095°06'3 2.9
2015-Aug-24 03:33N 29°45' W 095°04'4 3.8
2015-Aug-24 02:34N 29°42' W 095°00'4 3.8
2015-Aug-24 01:33N 29°39' W 094°58'4 4.4
2015-Aug-24 00:34N 29°35' W 094°56'4 4.4
2015-Aug-23 23:34N 29°31' W 094°53'4 4.0
2015-Aug-23 22:33N 29°28' W 094°51'4 4.0
2015-Aug-23 21:31N 29°24' W 094°49'  

Dump ship's entire track history